Oakville, TX (78060)

10:48 AM CST on January 31, 2015 (GMT -0600)
Beeville | Change Station
CLOSE
Current Station
Airport
Location: Beeville,
Elevation: 269 ft
Nearby Weather Stations

Elev 269 ft 28.37 °N, 97.80 °W | Updated 13 minutes ago

Overcast
Overcast
64 °F
Feels Like 64 °F
N
9
Wind Variable Wind from ESE

Today
High -- | Low -- °F
--% Chance of Precip.
Yesterday
High -- | Low -- °F
Precip. -- in
7:20 AM 6:11 PM
Waxing Gibbous, 90% visible
Pressure 30.11 in
Visibility 10.0 miles
Clouds Overcast 700 ft
Dew Point 63 °F
Humidity 97%
Rainfall 0.07 in
Snow Depth Not available.
UV 1 out of 12
Pollen 8.40 out of 12
Air Quality Not available.
Flu Activity Not available.
METAR KBEA 311635Z AUTO 12008KT 10SM OVC007 18/17 A3011 RMK AO2 T01770173

More Conditions Fewer Conditions

Pressure 30.11 in
Visibility 10.0 miles
Clouds Overcast 700 ft
Dew Point 63 °F
Humidity 97%
Rainfall 0.07 in
Snow Depth Not available.
UV 1 out of 12
Pollen 8.40 out of 12
Air Quality Not available.
Flu Activity Not available.
METAR KBEA 311635Z AUTO 12008KT 10SM OVC007 18/17 A3011 RMK AO2 T01770173

More Conditions Fewer Conditions

Nowcast | as of 9:07 am CST on January 31, 2015

Isolated light rain and sprinkles will continue across the coastal Bend this morning. The strongest activity is currently across northern Webb County...but many areas across the region will see at least enough precipitation to wet pavement. No significant rainfall amounts are expected this morning.

×

10-Day Weather Forecast

Almanac

Astronomy

Jan. 31, 2015 Rise Set
Actual Time
Civil Twilight
Nautical Twilight
Astronomical Twilight
Moon
Length of Visible Light
Length of Day
Tomorrow will be .
, % of the Moon is Illuminated

Today's Extremes

State Highs State Lows

Community

WunderPhotos

Upload Photos

1,792,105 photos uploaded!

WunderBlogs® & News

Nearby

Air Quality

  Air Quality AQ Index Pollutant
Not available.

Snow Depth

Station Depth Elevation

Earthquake Activity

City Distance Mag. Time & Date
Minimum magnitude displayed is 2.5.

Coastal Water Temperatures

Place Temperature

Nearby Weather Stations